sensor_id;sensor_type;location;lat;lon;timestamp;P1;durP1;ratioP1;P2;durP2;ratioP2
41761;SDS011;27441;50.860;0.258;2022-11-28T00:01:55;1999.90;;;999.90;;
41761;SDS011;27441;50.860;0.258;2022-11-28T00:04:21;1999.90;;;999.90;;
41761;SDS011;27441;50.860;0.258;2022-11-28T00:06:47;1999.90;;;999.90;;
41761;SDS011;27441;50.860;0.258;2022-11-28T00:09:16;1999.90;;;999.90;;
41761;SDS011;27441;50.860;0.258;2022-11-28T00:11:43;1999.90;;;999.90;;
41761;SDS011;27441;50.860;0.258;2022-11-28T00:14:10;1999.90;;;999.90;;
41761;SDS011;27441;50.860;0.258;2022-11-28T00:16:36;1999.90;;;999.90;;
41761;SDS011;27441;50.860;0.258;2022-11-28T00:19:02;1999.90;;;999.90;;
41761;SDS011;27441;50.860;0.258;2022-11-28T00:21:29;1999.90;;;999.90;;
41761;SDS011;27441;50.860;0.258;2022-11-28T00:23:55;1999.90;;;999.90;;
41761;SDS011;27441;50.860;0.258;2022-11-28T00:26:29;1999.90;;;999.90;;
41761;SDS011;27441;50.860;0.258;2022-11-28T00:28:56;1999.90;;;999.90;;
41761;SDS011;27441;50.860;0.258;2022-11-28T00:31:24;1999.90;;;999.90;;
41761;SDS011;27441;50.860;0.258;2022-11-28T00:33:53;1999.90;;;999.90;;
41761;SDS011;27441;50.860;0.258;2022-11-28T00:36:19;1999.90;;;999.90;;
41761;SDS011;27441;50.860;0.258;2022-11-28T00:38:46;1999.90;;;999.90;;
41761;SDS011;27441;50.860;0.258;2022-11-28T00:41:22;1999.90;;;999.90;;
41761;SDS011;27441;50.860;0.258;2022-11-28T00:43:50;1999.90;;;999.90;;
41761;SDS011;27441;50.860;0.258;2022-11-28T00:46:17;1999.90;;;999.90;;
41761;SDS011;27441;50.860;0.258;2022-11-28T00:48:43;1999.90;;;999.90;;
41761;SDS011;27441;50.860;0.258;2022-11-28T00:51:16;1999.90;;;999.90;;
41761;SDS011;27441;50.860;0.258;2022-11-28T00:53:44;1999.90;;;999.90;;
41761;SDS011;27441;50.860;0.258;2022-11-28T00:56:12;1999.90;;;999.90;;
41761;SDS011;27441;50.860;0.258;2022-11-28T00:58:39;1999.90;;;999.90;;
41761;SDS011;27441;50.860;0.258;2022-11-28T01:01:13;1999.90;;;999.90;;
41761;SDS011;27441;50.860;0.258;2022-11-28T01:03:42;1999.90;;;999.90;;
41761;SDS011;27441;50.860;0.258;2022-11-28T01:06:08;1999.90;;;999.90;;
41761;SDS011;27441;50.860;0.258;2022-11-28T01:08:34;1999.90;;;999.90;;
41761;SDS011;27441;50.860;0.258;2022-11-28T01:11:00;1999.90;;;999.90;;
41761;SDS011;27441;50.860;0.258;2022-11-28T01:13:27;1999.90;;;999.90;;
41761;SDS011;27441;50.860;0.258;2022-11-28T01:15:53;1999.90;;;999.90;;
41761;SDS011;27441;50.860;0.258;2022-11-28T01:18:19;1999.90;;;999.90;;
41761;SDS011;27441;50.860;0.258;2022-11-28T01:20:44;1999.90;;;999.90;;
41761;SDS011;27441;50.860;0.258;2022-11-28T01:23:10;1999.90;;;999.90;;
41761;SDS011;27441;50.860;0.258;2022-11-28T01:25:36;1999.90;;;999.90;;
41761;SDS011;27441;50.860;0.258;2022-11-28T01:28:02;1999.90;;;999.90;;
41761;SDS011;27441;50.860;0.258;2022-11-28T01:30:28;1999.90;;;999.90;;
41761;SDS011;27441;50.860;0.258;2022-11-28T01:32:53;1999.90;;;999.90;;
41761;SDS011;27441;50.860;0.258;2022-11-28T01:35:19;1999.90;;;999.90;;
41761;SDS011;27441;50.860;0.258;2022-11-28T01:37:45;1999.90;;;999.90;;
41761;SDS011;27441;50.860;0.258;2022-11-28T01:40:11;1999.90;;;999.90;;
41761;SDS011;27441;50.860;0.258;2022-11-28T01:42:37;1999.90;;;999.90;;
41761;SDS011;27441;50.860;0.258;2022-11-28T01:45:19;1999.90;;;999.90;;
41761;SDS011;27441;50.860;0.258;2022-11-28T01:50:11;1999.90;;;999.90;;
41761;SDS011;27441;50.860;0.258;2022-11-28T01:52:38;1999.90;;;999.90;;
41761;SDS011;27441;50.860;0.258;2022-11-28T01:55:07;1999.90;;;999.90;;
41761;SDS011;27441;50.860;0.258;2022-11-28T01:57:36;1999.90;;;999.90;;
41761;SDS011;27441;50.860;0.258;2022-11-28T02:00:13;1999.90;;;999.90;;
41761;SDS011;27441;50.860;0.258;2022-11-28T02:02:46;1999.90;;;999.90;;
41761;SDS011;27441;50.860;0.258;2022-11-28T02:05:19;1999.90;;;999.90;;
41761;SDS011;27441;50.860;0.258;2022-11-28T02:07:46;1999.90;;;999.90;;
41761;SDS011;27441;50.860;0.258;2022-11-28T02:10:14;1999.90;;;999.90;;
41761;SDS011;27441;50.860;0.258;2022-11-28T02:12:52;1999.90;;;999.90;;
41761;SDS011;27441;50.860;0.258;2022-11-28T02:15:57;1999.90;;;999.90;;
41761;SDS011;27441;50.860;0.258;2022-11-28T02:35:07;1999.90;;;999.90;;
41761;SDS011;27441;50.860;0.258;2022-11-28T02:38:03;1999.90;;;999.90;;
41761;SDS011;27441;50.860;0.258;2022-11-28T02:43:16;1999.90;;;999.90;;
41761;SDS011;27441;50.860;0.258;2022-11-28T02:48:25;1999.90;;;999.90;;
41761;SDS011;27441;50.860;0.258;2022-11-28T02:51:46;1999.90;;;999.90;;
41761;SDS011;27441;50.860;0.258;2022-11-28T02:53:45;1999.90;;;999.90;;
41761;SDS011;27441;50.860;0.258;2022-11-28T02:56:13;1999.90;;;999.90;;
41761;SDS011;27441;50.860;0.258;2022-11-28T02:58:39;1999.90;;;999.90;;
41761;SDS011;27441;50.860;0.258;2022-11-28T03:01:05;1999.90;;;999.90;;
41761;SDS011;27441;50.860;0.258;2022-11-28T03:09:16;1999.90;;;999.90;;
41761;SDS011;27441;50.860;0.258;2022-11-28T03:14:50;1999.90;;;999.90;;
41761;SDS011;27441;50.860;0.258;2022-11-28T03:30:56;1999.90;;;999.90;;
41761;SDS011;27441;50.860;0.258;2022-11-28T03:33:26;1999.90;;;999.90;;
41761;SDS011;27441;50.860;0.258;2022-11-28T03:35:58;1999.90;;;999.90;;
41761;SDS011;27441;50.860;0.258;2022-11-28T03:38:41;1999.90;;;999.90;;
41761;SDS011;27441;50.860;0.258;2022-11-28T03:41:11;1999.90;;;999.90;;
41761;SDS011;27441;50.860;0.258;2022-11-28T03:43:44;1999.90;;;999.90;;
41761;SDS011;27441;50.860;0.258;2022-11-28T03:46:15;1999.90;;;999.90;;
41761;SDS011;27441;50.860;0.258;2022-11-28T03:48:44;1999.90;;;999.90;;
41761;SDS011;27441;50.860;0.258;2022-11-28T03:56:29;1999.90;;;999.90;;
41761;SDS011;27441;50.860;0.258;2022-11-28T03:59:19;1999.90;;;999.90;;
41761;SDS011;27441;50.860;0.258;2022-11-28T04:10:19;1999.90;;;999.90;;
41761;SDS011;27441;50.860;0.258;2022-11-28T04:13:02;1999.90;;;999.90;;
41761;SDS011;27441;50.860;0.258;2022-11-28T04:15:42;1999.90;;;999.90;;
41761;SDS011;27441;50.860;0.258;2022-11-28T04:18:30;1999.90;;;999.90;;
41761;SDS011;27441;50.860;0.258;2022-11-28T04:24:03;1999.90;;;999.90;;
41761;SDS011;27441;50.860;0.258;2022-11-28T04:26:33;1999.90;;;999.90;;
41761;SDS011;27441;50.860;0.258;2022-11-28T04:29:04;1999.90;;;999.90;;
41761;SDS011;27441;50.860;0.258;2022-11-28T04:31:35;1999.90;;;999.90;;
41761;SDS011;27441;50.860;0.258;2022-11-28T04:34:04;1999.90;;;999.90;;
41761;SDS011;27441;50.860;0.258;2022-11-28T04:36:33;1999.90;;;999.90;;
41761;SDS011;27441;50.860;0.258;2022-11-28T04:39:03;1999.90;;;999.90;;
41761;SDS011;27441;50.860;0.258;2022-11-28T04:41:35;1999.90;;;999.90;;
41761;SDS011;27441;50.860;0.258;2022-11-28T04:44:08;1999.90;;;999.90;;
41761;SDS011;27441;50.860;0.258;2022-11-28T04:49:23;1999.90;;;999.90;;
41761;SDS011;27441;50.860;0.258;2022-11-28T04:54:28;1999.90;;;999.90;;
41761;SDS011;27441;50.860;0.258;2022-11-28T04:57:16;1999.90;;;999.90;;
41761;SDS011;27441;50.860;0.258;2022-11-28T05:00:10;1999.90;;;999.90;;
41761;SDS011;27441;50.860;0.258;2022-11-28T05:02:39;1999.90;;;999.90;;
41761;SDS011;27441;50.860;0.258;2022-11-28T05:05:14;1999.90;;;999.90;;
41761;SDS011;27441;50.860;0.258;2022-11-28T05:07:41;1999.90;;;999.90;;
41761;SDS011;27441;50.860;0.258;2022-11-28T05:10:07;1999.90;;;999.90;;
41761;SDS011;27441;50.860;0.258;2022-11-28T05:12:34;1999.90;;;999.90;;
41761;SDS011;27441;50.860;0.258;2022-11-28T05:15:00;1999.90;;;999.90;;
41761;SDS011;27441;50.860;0.258;2022-11-28T05:17:26;1999.90;;;999.90;;
41761;SDS011;27441;50.860;0.258;2022-11-28T05:19:52;1999.90;;;999.90;;
41761;SDS011;27441;50.860;0.258;2022-11-28T05:22:17;1999.90;;;999.90;;
41761;SDS011;27441;50.860;0.258;2022-11-28T05:24:43;1999.90;;;999.90;;
41761;SDS011;27441;50.860;0.258;2022-11-28T05:27:09;1999.90;;;999.90;;
41761;SDS011;27441;50.860;0.258;2022-11-28T05:29:35;1999.90;;;999.90;;
41761;SDS011;27441;50.860;0.258;2022-11-28T05:32:01;1999.90;;;999.90;;
41761;SDS011;27441;50.860;0.258;2022-11-28T05:34:27;1999.90;;;999.90;;
41761;SDS011;27441;50.860;0.258;2022-11-28T05:36:55;1999.90;;;999.90;;
41761;SDS011;27441;50.860;0.258;2022-11-28T05:39:21;1999.90;;;999.90;;
41761;SDS011;27441;50.860;0.258;2022-11-28T05:41:47;1999.90;;;999.90;;
41761;SDS011;27441;50.860;0.258;2022-11-28T05:44:13;1999.90;;;999.90;;
41761;SDS011;27441;50.860;0.258;2022-11-28T05:46:39;1999.90;;;999.90;;
41761;SDS011;27441;50.860;0.258;2022-11-28T05:49:04;1999.90;;;999.90;;
41761;SDS011;27441;50.860;0.258;2022-11-28T05:51:30;1999.90;;;999.90;;
41761;SDS011;27441;50.860;0.258;2022-11-28T05:53:56;1999.90;;;999.90;;
41761;SDS011;27441;50.860;0.258;2022-11-28T05:56:21;1999.90;;;999.90;;
41761;SDS011;27441;50.860;0.258;2022-11-28T05:58:47;1999.90;;;999.90;;
41761;SDS011;27441;50.860;0.258;2022-11-28T06:01:14;1999.90;;;999.90;;
41761;SDS011;27441;50.860;0.258;2022-11-28T06:03:42;1999.90;;;999.90;;
41761;SDS011;27441;50.860;0.258;2022-11-28T06:06:10;1999.90;;;999.90;;
41761;SDS011;27441;50.860;0.258;2022-11-28T06:08:40;1999.90;;;999.90;;
41761;SDS011;27441;50.860;0.258;2022-11-28T06:11:06;1999.90;;;999.90;;
41761;SDS011;27441;50.860;0.258;2022-11-28T06:13:32;1999.90;;;999.90;;
41761;SDS011;27441;50.860;0.258;2022-11-28T06:15:58;1999.90;;;999.90;;
41761;SDS011;27441;50.860;0.258;2022-11-28T06:18:24;1999.90;;;999.90;;
41761;SDS011;27441;50.860;0.258;2022-11-28T06:20:49;1999.90;;;999.90;;
41761;SDS011;27441;50.860;0.258;2022-11-28T06:23:15;1999.90;;;999.90;;
41761;SDS011;27441;50.860;0.258;2022-11-28T06:25:41;1999.90;;;999.90;;
41761;SDS011;27441;50.860;0.258;2022-11-28T06:28:07;1999.90;;;999.90;;
41761;SDS011;27441;50.860;0.258;2022-11-28T06:30:32;1999.90;;;999.90;;
41761;SDS011;27441;50.860;0.258;2022-11-28T06:32:58;1999.90;;;999.90;;
41761;SDS011;27441;50.860;0.258;2022-11-28T06:35:24;1999.90;;;999.90;;
41761;SDS011;27441;50.860;0.258;2022-11-28T06:37:49;1999.90;;;999.90;;
41761;SDS011;27441;50.860;0.258;2022-11-28T06:40:15;1999.90;;;999.90;;
41761;SDS011;27441;50.860;0.258;2022-11-28T06:42:41;1999.90;;;999.90;;
41761;SDS011;27441;50.860;0.258;2022-11-28T06:45:07;1999.90;;;999.90;;
41761;SDS011;27441;50.860;0.258;2022-11-28T06:47:33;1999.90;;;999.90;;
41761;SDS011;27441;50.860;0.258;2022-11-28T06:49:59;1999.90;;;999.90;;
41761;SDS011;27441;50.860;0.258;2022-11-28T06:52:24;1999.90;;;999.90;;
41761;SDS011;27441;50.860;0.258;2022-11-28T06:54:50;1999.90;;;999.90;;
41761;SDS011;27441;50.860;0.258;2022-11-28T06:57:16;1999.90;;;999.90;;
41761;SDS011;27441;50.860;0.258;2022-11-28T06:59:42;1999.90;;;999.90;;
41761;SDS011;27441;50.860;0.258;2022-11-28T07:02:09;1999.90;;;999.90;;
41761;SDS011;27441;50.860;0.258;2022-11-28T07:04:35;1999.90;;;999.90;;
41761;SDS011;27441;50.860;0.258;2022-11-28T07:07:01;1999.90;;;999.90;;
41761;SDS011;27441;50.860;0.258;2022-11-28T07:09:27;1999.90;;;999.90;;
41761;SDS011;27441;50.860;0.258;2022-11-28T07:11:54;1999.90;;;999.90;;
41761;SDS011;27441;50.860;0.258;2022-11-28T07:14:20;1999.90;;;999.90;;
41761;SDS011;27441;50.860;0.258;2022-11-28T07:16:46;1999.90;;;999.90;;
41761;SDS011;27441;50.860;0.258;2022-11-28T07:19:13;1999.90;;;999.90;;
41761;SDS011;27441;50.860;0.258;2022-11-28T07:21:38;1999.90;;;999.90;;
41761;SDS011;27441;50.860;0.258;2022-11-28T07:24:05;1999.90;;;999.90;;
41761;SDS011;27441;50.860;0.258;2022-11-28T07:26:31;1999.90;;;999.90;;
41761;SDS011;27441;50.860;0.258;2022-11-28T07:28:57;1999.90;;;999.90;;
41761;SDS011;27441;50.860;0.258;2022-11-28T07:31:24;1999.90;;;999.90;;
41761;SDS011;27441;50.860;0.258;2022-11-28T07:33:52;1999.90;;;999.90;;
41761;SDS011;27441;50.860;0.258;2022-11-28T07:36:19;1999.90;;;999.90;;
41761;SDS011;27441;50.860;0.258;2022-11-28T07:38:53;1999.90;;;999.90;;
41761;SDS011;27441;50.860;0.258;2022-11-28T07:41:21;1999.90;;;999.90;;
41761;SDS011;27441;50.860;0.258;2022-11-28T07:43:48;1999.90;;;999.90;;
41761;SDS011;27441;50.860;0.258;2022-11-28T07:46:15;1999.90;;;999.90;;
41761;SDS011;27441;50.860;0.258;2022-11-28T07:48:42;1999.90;;;999.90;;
41761;SDS011;27441;50.860;0.258;2022-11-28T07:51:09;1999.90;;;999.90;;
41761;SDS011;27441;50.860;0.258;2022-11-28T07:53:39;1999.90;;;999.90;;
41761;SDS011;27441;50.860;0.258;2022-11-28T07:56:10;1999.90;;;999.90;;
41761;SDS011;27441;50.860;0.258;2022-11-28T07:58:39;1999.90;;;999.90;;
41761;SDS011;27441;50.860;0.258;2022-11-28T08:01:10;1999.90;;;999.90;;
41761;SDS011;27441;50.860;0.258;2022-11-28T08:03:37;1999.90;;;999.90;;
41761;SDS011;27441;50.860;0.258;2022-11-28T08:06:03;1999.90;;;999.90;;
41761;SDS011;27441;50.860;0.258;2022-11-28T08:08:29;1999.90;;;999.90;;
41761;SDS011;27441;50.860;0.258;2022-11-28T08:10:56;1999.90;;;999.90;;
41761;SDS011;27441;50.860;0.258;2022-11-28T08:13:23;1999.90;;;999.90;;
41761;SDS011;27441;50.860;0.258;2022-11-28T08:15:48;1999.90;;;999.90;;
41761;SDS011;27441;50.860;0.258;2022-11-28T08:18:14;1999.90;;;999.90;;
41761;SDS011;27441;50.860;0.258;2022-11-28T08:20:40;1999.90;;;999.90;;
41761;SDS011;27441;50.860;0.258;2022-11-28T08:23:05;1999.90;;;999.90;;
41761;SDS011;27441;50.860;0.258;2022-11-28T08:25:31;1999.90;;;999.90;;
41761;SDS011;27441;50.860;0.258;2022-11-28T08:27:57;1999.90;;;999.90;;
41761;SDS011;27441;50.860;0.258;2022-11-28T08:30:23;1999.90;;;999.90;;
41761;SDS011;27441;50.860;0.258;2022-11-28T08:32:49;1999.90;;;999.90;;
41761;SDS011;27441;50.860;0.258;2022-11-28T08:35:15;1999.90;;;999.90;;
41761;SDS011;27441;50.860;0.258;2022-11-28T08:37:41;1999.90;;;999.90;;
41761;SDS011;27441;50.860;0.258;2022-11-28T08:40:06;1999.90;;;999.90;;
41761;SDS011;27441;50.860;0.258;2022-11-28T08:42:32;1999.90;;;999.90;;
41761;SDS011;27441;50.860;0.258;2022-11-28T08:44:59;1999.90;;;999.90;;
41761;SDS011;27441;50.860;0.258;2022-11-28T08:47:24;1999.90;;;999.90;;
41761;SDS011;27441;50.860;0.258;2022-11-28T08:49:50;1999.90;;;999.90;;
41761;SDS011;27441;50.860;0.258;2022-11-28T08:52:16;1999.90;;;999.90;;
41761;SDS011;27441;50.860;0.258;2022-11-28T08:54:42;1999.90;;;999.90;;
41761;SDS011;27441;50.860;0.258;2022-11-28T08:57:08;1999.90;;;999.90;;
41761;SDS011;27441;50.860;0.258;2022-11-28T08:59:34;1999.90;;;999.90;;
41761;SDS011;27441;50.860;0.258;2022-11-28T09:01:59;1999.90;;;999.90;;
41761;SDS011;27441;50.860;0.258;2022-11-28T09:04:25;1999.90;;;999.90;;
41761;SDS011;27441;50.860;0.258;2022-11-28T09:06:51;1999.90;;;999.90;;
41761;SDS011;27441;50.860;0.258;2022-11-28T09:09:17;1999.90;;;999.90;;
41761;SDS011;27441;50.860;0.258;2022-11-28T09:11:43;1999.90;;;999.90;;
41761;SDS011;27441;50.860;0.258;2022-11-28T09:14:09;1999.90;;;999.90;;
41761;SDS011;27441;50.860;0.258;2022-11-28T09:16:39;1999.90;;;999.90;;
41761;SDS011;27441;50.860;0.258;2022-11-28T09:19:05;1999.90;;;999.90;;
41761;SDS011;27441;50.860;0.258;2022-11-28T09:21:33;1999.90;;;999.90;;
41761;SDS011;27441;50.860;0.258;2022-11-28T09:23:59;1999.90;;;999.90;;
41761;SDS011;27441;50.860;0.258;2022-11-28T09:26:25;1999.90;;;999.90;;
41761;SDS011;27441;50.860;0.258;2022-11-28T09:28:51;1999.90;;;999.90;;
41761;SDS011;27441;50.860;0.258;2022-11-28T09:31:17;1999.90;;;999.90;;
41761;SDS011;27441;50.860;0.258;2022-11-28T09:33:44;1999.90;;;999.90;;
41761;SDS011;27441;50.860;0.258;2022-11-28T09:36:12;1999.90;;;999.90;;
41761;SDS011;27441;50.860;0.258;2022-11-28T09:38:40;1999.90;;;999.90;;
41761;SDS011;27441;50.860;0.258;2022-11-28T09:41:22;1999.90;;;999.90;;
41761;SDS011;27441;50.860;0.258;2022-11-28T09:44:13;1999.90;;;999.90;;
41761;SDS011;27441;50.860;0.258;2022-11-28T09:46:43;1999.90;;;999.90;;
41761;SDS011;27441;50.860;0.258;2022-11-28T09:49:18;1999.90;;;999.90;;
41761;SDS011;27441;50.860;0.258;2022-11-28T09:51:49;1999.90;;;999.90;;
41761;SDS011;27441;50.860;0.258;2022-11-28T09:54:36;1999.90;;;999.90;;
41761;SDS011;27441;50.860;0.258;2022-11-28T09:57:10;1999.90;;;999.90;;
41761;SDS011;27441;50.860;0.258;2022-11-28T09:59:57;1999.90;;;999.90;;
41761;SDS011;27441;50.860;0.258;2022-11-28T10:02:38;1999.90;;;999.90;;
41761;SDS011;27441;50.860;0.258;2022-11-28T10:05:25;1999.90;;;999.90;;
41761;SDS011;27441;50.860;0.258;2022-11-28T10:08:18;1999.90;;;999.90;;
41761;SDS011;27441;50.860;0.258;2022-11-28T10:14:04;1999.90;;;999.90;;
41761;SDS011;27441;50.860;0.258;2022-11-28T10:19:22;1999.90;;;999.90;;
41761;SDS011;27441;50.860;0.258;2022-11-28T10:21:59;1999.90;;;999.90;;
41761;SDS011;27441;50.860;0.258;2022-11-28T10:24:43;1999.90;;;999.90;;
41761;SDS011;27441;50.860;0.258;2022-11-28T10:27:23;1999.90;;;999.90;;
41761;SDS011;27441;50.860;0.258;2022-11-28T10:29:57;1999.90;;;999.90;;
41761;SDS011;27441;50.860;0.258;2022-11-28T10:32:46;1999.90;;;999.90;;
41761;SDS011;27441;50.860;0.258;2022-11-28T10:35:21;1999.90;;;999.90;;
41761;SDS011;27441;50.860;0.258;2022-11-28T10:37:47;1999.90;;;999.90;;
41761;SDS011;27441;50.860;0.258;2022-11-28T10:43:12;1999.90;;;999.90;;
41761;SDS011;27441;50.860;0.258;2022-11-28T10:45:54;1999.90;;;999.90;;
41761;SDS011;27441;50.860;0.258;2022-11-28T10:51:25;1999.90;;;999.90;;
41761;SDS011;27441;50.860;0.258;2022-11-28T10:59:21;1999.90;;;999.90;;
41761;SDS011;27441;50.860;0.258;2022-11-28T11:02:21;1999.90;;;999.90;;
41761;SDS011;27441;50.860;0.258;2022-11-28T11:04:59;1999.90;;;999.90;;
41761;SDS011;27441;50.860;0.258;2022-11-28T11:07:26;1999.90;;;999.90;;
41761;SDS011;27441;50.860;0.258;2022-11-28T11:12:45;1999.90;;;999.90;;
41761;SDS011;27441;50.860;0.258;2022-11-28T11:15:22;1999.90;;;999.90;;
41761;SDS011;27441;50.860;0.258;2022-11-28T11:17:56;1999.90;;;999.90;;
41761;SDS011;27441;50.860;0.258;2022-11-28T11:20:39;1999.90;;;999.90;;
41761;SDS011;27441;50.860;0.258;2022-11-28T11:23:15;1999.90;;;999.90;;
41761;SDS011;27441;50.860;0.258;2022-11-28T11:25:47;1999.90;;;999.90;;
41761;SDS011;27441;50.860;0.258;2022-11-28T11:28:25;1999.90;;;999.90;;
41761;SDS011;27441;50.860;0.258;2022-11-28T11:31:01;1999.90;;;999.90;;
41761;SDS011;27441;50.860;0.258;2022-11-28T11:33:31;1999.90;;;999.90;;
41761;SDS011;27441;50.860;0.258;2022-11-28T11:35:58;1999.90;;;999.90;;
41761;SDS011;27441;50.860;0.258;2022-11-28T11:38:30;1999.90;;;999.90;;
41761;SDS011;27441;50.860;0.258;2022-11-28T11:41:16;1999.90;;;999.90;;
41761;SDS011;27441;50.860;0.258;2022-11-28T11:43:54;1999.90;;;999.90;;
41761;SDS011;27441;50.860;0.258;2022-11-28T11:46:21;1999.90;;;999.90;;
41761;SDS011;27441;50.860;0.258;2022-11-28T11:48:48;1999.90;;;999.90;;
41761;SDS011;27441;50.860;0.258;2022-11-28T11:51:29;1999.90;;;999.90;;
41761;SDS011;27441;50.860;0.258;2022-11-28T11:56:27;1999.90;;;999.90;;
41761;SDS011;27441;50.860;0.258;2022-11-28T11:58:56;1999.90;;;999.90;;
41761;SDS011;27441;50.860;0.258;2022-11-28T12:01:25;1999.90;;;999.90;;
41761;SDS011;27441;50.860;0.258;2022-11-28T12:03:59;1999.90;;;999.90;;
41761;SDS011;27441;50.860;0.258;2022-11-28T12:06:29;1999.90;;;999.90;;
41761;SDS011;27441;50.860;0.258;2022-11-28T12:09:10;1999.90;;;999.90;;
41761;SDS011;27441;50.860;0.258;2022-11-28T12:11:56;1999.90;;;999.90;;
41761;SDS011;27441;50.860;0.258;2022-11-28T12:14:45;1999.90;;;999.90;;
41761;SDS011;27441;50.860;0.258;2022-11-28T12:17:24;1999.90;;;999.90;;
41761;SDS011;27441;50.860;0.258;2022-11-28T12:25:38;1999.90;;;999.90;;
41761;SDS011;27441;50.860;0.258;2022-11-28T12:33:35;1999.90;;;999.90;;
41761;SDS011;27441;50.860;0.258;2022-11-28T12:39:07;1999.90;;;999.90;;
41761;SDS011;27441;50.860;0.258;2022-11-28T12:44:46;1999.90;;;999.90;;
41761;SDS011;27441;50.860;0.258;2022-11-28T12:50:29;1999.90;;;999.90;;
41761;SDS011;27441;50.860;0.258;2022-11-28T12:56:15;1999.90;;;999.90;;
41761;SDS011;27441;50.860;0.258;2022-11-28T13:15:29;1999.90;;;999.90;;
41761;SDS011;27441;50.860;0.258;2022-11-28T13:18:14;1999.90;;;999.90;;
41761;SDS011;27441;50.860;0.258;2022-11-28T13:24:23;1999.90;;;999.90;;
41761;SDS011;27441;50.860;0.258;2022-11-28T13:26:57;1999.90;;;999.90;;
41761;SDS011;27441;50.860;0.258;2022-11-28T13:29:37;1999.90;;;999.90;;
41761;SDS011;27441;50.860;0.258;2022-11-28T13:35:00;1999.90;;;999.90;;
41761;SDS011;27441;50.860;0.258;2022-11-28T13:42:54;1999.90;;;999.90;;
41761;SDS011;27441;50.860;0.258;2022-11-28T13:45:31;1999.90;;;999.90;;
41761;SDS011;27441;50.860;0.258;2022-11-28T13:53:43;1999.90;;;999.90;;
41761;SDS011;27441;50.860;0.258;2022-11-28T13:56:19;1999.90;;;999.90;;
41761;SDS011;27441;50.860;0.258;2022-11-28T13:58:49;1999.90;;;999.90;;
41761;SDS011;27441;50.860;0.258;2022-11-28T14:01:19;1999.90;;;999.90;;
41761;SDS011;27441;50.860;0.258;2022-11-28T14:06:23;1999.90;;;999.90;;
41761;SDS011;27441;50.860;0.258;2022-11-28T14:09:16;1999.90;;;999.90;;
41761;SDS011;27441;50.860;0.258;2022-11-28T14:20:55;1999.90;;;999.90;;
41761;SDS011;27441;50.860;0.258;2022-11-28T14:25:52;1999.90;;;999.90;;
41761;SDS011;27441;50.860;0.258;2022-11-28T14:30:44;1999.90;;;999.90;;
41761;SDS011;27441;50.860;0.258;2022-11-28T14:33:22;1999.90;;;999.90;;
41761;SDS011;27441;50.860;0.258;2022-11-28T14:41:01;1999.90;;;999.90;;
41761;SDS011;27441;50.860;0.258;2022-11-28T14:43:37;1999.90;;;999.90;;
41761;SDS011;27441;50.860;0.258;2022-11-28T14:46:20;1999.90;;;999.90;;
41761;SDS011;27441;50.860;0.258;2022-11-28T14:52:25;1999.90;;;999.90;;
41761;SDS011;27441;50.860;0.258;2022-11-28T14:54:35;1999.90;;;999.90;;
41761;SDS011;27441;50.860;0.258;2022-11-28T14:57:18;1999.90;;;999.90;;
41761;SDS011;27441;50.860;0.258;2022-11-28T15:10:46;1999.90;;;999.90;;
41761;SDS011;27441;50.860;0.258;2022-11-28T15:16:09;1999.90;;;999.90;;
41761;SDS011;27441;50.860;0.258;2022-11-28T15:18:38;1999.90;;;999.90;;
41761;SDS011;27441;50.860;0.258;2022-11-28T15:21:11;1999.90;;;999.90;;
41761;SDS011;27441;50.860;0.258;2022-11-28T15:23:40;1999.90;;;999.90;;
41761;SDS011;27441;50.860;0.258;2022-11-28T15:26:06;1999.90;;;999.90;;
41761;SDS011;27441;50.860;0.258;2022-11-28T15:28:42;1999.90;;;999.90;;
41761;SDS011;27441;50.860;0.258;2022-11-28T15:31:17;1999.90;;;999.90;;
41761;SDS011;27441;50.860;0.258;2022-11-28T15:33:47;1999.90;;;999.90;;
41761;SDS011;27441;50.860;0.258;2022-11-28T15:36:25;1999.90;;;999.90;;
41761;SDS011;27441;50.860;0.258;2022-11-28T15:38:52;1999.90;;;999.90;;
41761;SDS011;27441;50.860;0.258;2022-11-28T15:41:20;1999.90;;;999.90;;
41761;SDS011;27441;50.860;0.258;2022-11-28T15:43:48;1999.90;;;999.90;;
41761;SDS011;27441;50.860;0.258;2022-11-28T15:46:18;1999.90;;;999.90;;
41761;SDS011;27441;50.860;0.258;2022-11-28T15:48:50;1999.90;;;999.90;;
41761;SDS011;27441;50.860;0.258;2022-11-28T15:51:26;1999.90;;;999.90;;
41761;SDS011;27441;50.860;0.258;2022-11-28T15:53:53;1999.90;;;999.90;;
41761;SDS011;27441;50.860;0.258;2022-11-28T15:56:19;1999.90;;;999.90;;
41761;SDS011;27441;50.860;0.258;2022-11-28T15:58:45;1999.90;;;999.90;;
41761;SDS011;27441;50.860;0.258;2022-11-28T16:01:21;622.47;;;106.22;;
41761;SDS011;27441;50.860;0.258;2022-11-28T16:06:15;182.63;;;21.98;;
41761;SDS011;27441;50.860;0.258;2022-11-28T16:08:46;1596.22;;;577.00;;
41761;SDS011;27441;50.860;0.258;2022-11-28T16:11:18;13.35;;;12.05;;
41761;SDS011;27441;50.860;0.258;2022-11-28T16:13:46;611.88;;;84.25;;
41761;SDS011;27441;50.860;0.258;2022-11-28T16:16:22;151.80;;;12.43;;
41761;SDS011;27441;50.860;0.258;2022-11-28T16:18:53;258.13;;;39.45;;
41761;SDS011;27441;50.860;0.258;2022-11-28T16:21:27;3.50;;;3.30;;
41761;SDS011;27441;50.860;0.258;2022-11-28T16:23:57;1999.90;;;999.90;;
41761;SDS011;27441;50.860;0.258;2022-11-28T16:26:34;6.65;;;6.25;;
41761;SDS011;27441;50.860;0.258;2022-11-28T16:31:30;787.20;;;410.38;;
41761;SDS011;27441;50.860;0.258;2022-11-28T16:33:57;5.28;;;4.97;;
41761;SDS011;27441;50.860;0.258;2022-11-28T16:36:36;280.95;;;233.52;;
41761;SDS011;27441;50.860;0.258;2022-11-28T16:41:34;1999.90;;;999.90;;
41761;SDS011;27441;50.860;0.258;2022-11-28T16:44:05;1999.90;;;999.90;;
41761;SDS011;27441;50.860;0.258;2022-11-28T16:46:37;1999.90;;;999.90;;
41761;SDS011;27441;50.860;0.258;2022-11-28T16:49:04;1999.90;;;999.90;;
41761;SDS011;27441;50.860;0.258;2022-11-28T16:51:40;451.65;;;283.83;;
41761;SDS011;27441;50.860;0.258;2022-11-28T16:54:27;3.83;;;3.63;;
41761;SDS011;27441;50.860;0.258;2022-11-28T16:57:06;289.70;;;192.35;;
41761;SDS011;27441;50.860;0.258;2022-11-28T16:59:38;1999.90;;;999.90;;
41761;SDS011;27441;50.860;0.258;2022-11-28T17:02:10;1999.90;;;999.90;;
41761;SDS011;27441;50.860;0.258;2022-11-28T17:04:41;1999.90;;;999.90;;
41761;SDS011;27441;50.860;0.258;2022-11-28T17:07:09;1999.90;;;999.90;;
41761;SDS011;27441;50.860;0.258;2022-11-28T17:09:37;1999.90;;;999.90;;
41761;SDS011;27441;50.860;0.258;2022-11-28T17:12:05;1999.90;;;999.90;;
41761;SDS011;27441;50.860;0.258;2022-11-28T17:14:46;1999.90;;;999.90;;
41761;SDS011;27441;50.860;0.258;2022-11-28T17:17:12;1999.90;;;999.90;;
41761;SDS011;27441;50.860;0.258;2022-11-28T17:19:39;1999.90;;;999.90;;
41761;SDS011;27441;50.860;0.258;2022-11-28T17:22:05;1999.90;;;999.90;;